createdAt,value
2019-01-26T00:02:13.621Z,142.33
2019-01-26T00:04:41.872Z,76.53
2019-01-26T00:07:10.703Z,71.77
2019-01-26T00:09:39.386Z,89.30
2019-01-26T00:12:07.813Z,73.50
2019-01-26T00:14:36.406Z,59.53
2019-01-26T00:17:05.678Z,55.40
2019-01-26T00:19:34.247Z,61.93
2019-01-26T00:22:02.945Z,58.97
2019-01-26T00:24:31.621Z,67.63
2019-01-26T00:27:00.098Z,66.70
2019-01-26T00:29:28.764Z,67.13
2019-01-26T00:31:57.144Z,65.70
2019-01-26T00:34:25.823Z,60.47
2019-01-26T00:36:54.193Z,55.73
2019-01-26T00:39:22.787Z,51.07
2019-01-26T00:41:51.490Z,54.83
2019-01-26T00:44:20.101Z,49.20
2019-01-26T00:46:48.390Z,54.80
2019-01-26T00:49:16.852Z,51.10
2019-01-26T00:51:45.214Z,50.00
2019-01-26T00:54:13.750Z,50.27
2019-01-26T00:56:42.435Z,50.63
2019-01-26T00:59:11.188Z,45.17
2019-01-26T01:01:39.919Z,45.33
2019-01-26T01:04:08.656Z,45.73
2019-01-26T01:06:36.960Z,48.87
2019-01-26T01:09:08.237Z,44.60
2019-01-26T01:11:36.684Z,45.97
2019-01-26T01:14:05.471Z,42.87
2019-01-26T01:16:36.007Z,47.90
2019-01-26T01:19:04.463Z,49.20
2019-01-26T01:21:33.193Z,48.73
2019-01-26T01:24:01.750Z,49.87
2019-01-26T01:26:31.200Z,49.47
2019-01-26T01:28:59.986Z,49.13
2019-01-26T01:31:28.795Z,49.73
2019-01-26T01:33:57.565Z,48.10
2019-01-26T01:36:26.195Z,46.90
2019-01-26T01:38:54.552Z,50.03
2019-01-26T01:41:22.869Z,48.53
2019-01-26T01:43:51.268Z,51.87
2019-01-26T01:46:19.817Z,48.47
2019-01-26T01:48:48.356Z,48.27
2019-01-26T01:51:17.127Z,56.00
2019-01-26T01:53:45.455Z,46.87
2019-01-26T01:56:14.000Z,48.53
2019-01-26T01:58:42.553Z,47.20
2019-01-26T02:01:11.348Z,44.37
2019-01-26T02:03:39.939Z,44.30
2019-01-26T02:06:08.170Z,45.63
2019-01-26T02:08:36.746Z,46.40
2019-01-26T02:11:05.418Z,48.30
2019-01-26T02:13:33.893Z,45.93
2019-01-26T02:16:02.556Z,45.43
2019-01-26T02:18:31.010Z,41.83
2019-01-26T02:21:00.145Z,45.37
2019-01-26T02:23:28.642Z,44.37
2019-01-26T02:25:57.395Z,46.17
2019-01-26T02:28:26.032Z,44.27
2019-01-26T02:30:54.774Z,45.37
2019-01-26T02:33:23.417Z,44.23
2019-01-26T02:35:51.969Z,47.07
2019-01-26T02:38:20.570Z,48.60
2019-01-26T02:40:49.219Z,58.80
2019-01-26T02:43:17.765Z,62.63
2019-01-26T02:45:46.350Z,50.40
2019-01-26T02:48:15.118Z,45.63
2019-01-26T02:50:43.864Z,45.37
2019-01-26T02:53:12.391Z,49.00
2019-01-26T02:55:41.043Z,46.77
2019-01-26T02:58:09.433Z,46.57
2019-01-26T03:00:38.136Z,47.63
2019-01-26T03:03:06.805Z,43.57
2019-01-26T03:05:35.673Z,47.60
2019-01-26T03:08:04.410Z,44.67
2019-01-26T03:10:33.206Z,51.47
2019-01-26T03:13:01.911Z,50.10
2019-01-26T03:15:30.317Z,51.23
2019-01-26T03:17:59.091Z,57.17
2019-01-26T03:20:28.120Z,59.47
2019-01-26T03:22:56.552Z,66.87
2019-01-26T03:25:25.105Z,64.60
2019-01-26T03:27:53.634Z,63.63
2019-01-26T03:30:24.250Z,63.37
2019-01-26T03:32:53.365Z,61.90
2019-01-26T03:35:21.978Z,59.00
2019-01-26T03:37:50.844Z,65.03
2019-01-26T03:40:19.702Z,64.53
2019-01-26T03:42:48.501Z,61.93
2019-01-26T03:45:17.409Z,62.60
2019-01-26T03:47:46.142Z,59.20
2019-01-26T03:50:15.029Z,55.63
2019-01-26T03:52:43.591Z,58.00
2019-01-26T03:55:13.229Z,55.33
2019-01-26T03:57:41.914Z,52.77
2019-01-26T04:00:14.090Z,54.93
2019-01-26T04:02:42.789Z,55.80
2019-01-26T04:05:11.597Z,51.90
2019-01-26T04:07:41.188Z,52.83
2019-01-26T04:10:10.402Z,53.03
2019-01-26T04:12:39.047Z,50.03
2019-01-26T04:15:09.461Z,47.60
2019-01-26T04:17:38.046Z,50.00
2019-01-26T04:20:06.949Z,45.67
2019-01-26T04:22:35.540Z,44.03
2019-01-26T04:25:04.664Z,51.23
2019-01-26T04:27:33.204Z,50.17
2019-01-26T04:30:03.207Z,50.77
2019-01-26T04:32:31.931Z,43.93
2019-01-26T04:35:00.323Z,48.90
2019-01-26T04:37:43.198Z,52.53
2019-01-26T04:40:25.890Z,52.90
2019-01-26T04:42:54.109Z,46.57
2019-01-26T04:45:23.883Z,42.13
2019-01-26T04:47:52.715Z,48.03
2019-01-26T04:50:21.759Z,47.23
2019-01-26T04:52:50.397Z,45.87
2019-01-26T04:55:19.153Z,44.60
2019-01-26T04:57:48.711Z,48.87
2019-01-26T05:00:22.512Z,43.33
2019-01-26T05:02:51.059Z,47.17
2019-01-26T05:05:19.451Z,48.10
2019-01-26T05:07:48.111Z,49.73
2019-01-26T05:10:17.396Z,49.83
2019-01-26T05:12:46.286Z,47.63
2019-01-26T05:15:16.165Z,46.77
2019-01-26T05:17:44.568Z,46.73
2019-01-26T05:20:15.780Z,45.17
2019-01-26T05:22:44.169Z,51.83
2019-01-26T05:25:12.933Z,44.63
2019-01-26T05:27:42.145Z,45.97
2019-01-26T05:30:22.941Z,47.10
2019-01-26T05:32:51.457Z,41.47
2019-01-26T05:35:20.015Z,43.57
2019-01-26T05:37:48.661Z,47.03
2019-01-26T05:40:17.619Z,46.10
2019-01-26T05:42:49.472Z,47.07
2019-01-26T05:45:19.860Z,45.37
2019-01-26T05:47:49.678Z,50.60
2019-01-26T05:50:20.399Z,46.57
2019-01-26T05:52:49.017Z,49.63
2019-01-26T05:55:17.690Z,43.17
2019-01-26T05:57:46.313Z,39.90
2019-01-26T06:00:18.756Z,48.10
2019-01-26T06:02:47.291Z,40.00
2019-01-26T06:05:16.064Z,44.30
2019-01-26T06:07:44.242Z,41.87
2019-01-26T06:10:13.016Z,41.73
2019-01-26T06:12:42.468Z,46.80
2019-01-26T06:15:11.349Z,40.80
2019-01-26T06:17:40.212Z,42.37
2019-01-26T06:20:09.436Z,42.80
2019-01-26T06:22:37.892Z,41.47
2019-01-26T06:25:10.740Z,38.13
2019-01-26T06:27:39.073Z,50.97
2019-01-26T06:30:09.867Z,57.90
2019-01-26T06:32:39.261Z,57.27
2019-01-26T06:35:07.675Z,47.90
2019-01-26T06:37:37.169Z,48.20
2019-01-26T06:40:06.371Z,47.40
2019-01-26T06:42:34.738Z,44.93
2019-01-26T06:45:03.730Z,44.10
2019-01-26T06:47:32.166Z,43.97
2019-01-26T06:50:00.563Z,47.60
2019-01-26T06:52:29.199Z,47.17
2019-01-26T06:54:57.519Z,46.60
2019-01-26T06:57:25.958Z,46.63
2019-01-26T06:59:54.656Z,49.67
2019-01-26T07:02:23.102Z,51.97
2019-01-26T07:05:00.003Z,47.53
2019-01-26T07:07:28.503Z,48.37
2019-01-26T07:09:57.027Z,47.13
2019-01-26T07:12:25.752Z,97.47
2019-01-26T07:14:53.932Z,56.40
2019-01-26T07:17:23.440Z,49.00
2019-01-26T07:19:51.845Z,53.27
2019-01-26T07:22:20.389Z,54.87
2019-01-26T07:24:49.035Z,61.23
2019-01-26T07:27:17.547Z,60.83
2019-01-26T07:29:46.179Z,58.43
2019-01-26T07:32:14.550Z,62.50
2019-01-26T07:34:42.910Z,61.43
2019-01-26T07:37:11.681Z,62.40
2019-01-26T07:39:40.172Z,60.57
2019-01-26T07:42:09.684Z,60.03
2019-01-26T07:44:38.281Z,64.23
2019-01-26T07:47:06.814Z,64.40
2019-01-26T07:49:35.711Z,60.10
2019-01-26T07:52:04.055Z,60.07
2019-01-26T07:54:32.760Z,81.83
2019-01-26T07:57:01.182Z,74.83
2019-01-26T07:59:29.363Z,84.30
2019-01-26T08:01:58.213Z,90.60
2019-01-26T08:04:26.400Z,99.70
2019-01-26T08:06:54.686Z,89.70
2019-01-26T08:09:23.247Z,71.90
2019-01-26T08:11:51.847Z,66.23
2019-01-26T08:14:20.497Z,55.07
2019-01-26T08:16:49.008Z,55.27
2019-01-26T08:19:17.596Z,50.97
2019-01-26T08:21:46.364Z,54.17
2019-01-26T08:24:14.643Z,53.63
2019-01-26T08:26:43.206Z,54.30
2019-01-26T08:29:11.835Z,57.00
2019-01-26T08:31:40.584Z,52.10
2019-01-26T08:34:08.963Z,49.90
2019-01-26T08:36:37.650Z,55.60
2019-01-26T08:39:08.134Z,47.07
2019-01-26T08:41:36.732Z,45.95
2019-01-26T08:44:05.474Z,51.07
2019-01-26T08:46:33.981Z,49.70
2019-01-26T08:49:02.708Z,50.13
2019-01-26T08:51:31.233Z,46.90
2019-01-26T08:53:59.628Z,47.17
2019-01-26T08:56:28.437Z,46.77
2019-01-26T08:58:56.888Z,42.93
2019-01-26T09:01:25.471Z,46.07
2019-01-26T09:03:59.826Z,50.30
2019-01-26T09:06:31.383Z,45.93
2019-01-26T09:08:59.815Z,46.70
2019-01-26T09:11:28.418Z,48.83
2019-01-26T09:13:56.982Z,43.57
2019-01-26T09:16:25.361Z,46.13
2019-01-26T09:18:54.077Z,44.20
2019-01-26T09:21:22.539Z,51.53
2019-01-26T09:23:51.120Z,49.95
2019-01-26T09:26:19.796Z,50.10
2019-01-26T09:28:48.303Z,46.10
2019-01-26T09:31:17.087Z,43.77
2019-01-26T09:33:45.771Z,44.60
2019-01-26T09:36:14.341Z,42.30
2019-01-26T09:38:42.981Z,45.47
2019-01-26T09:41:11.649Z,46.43
2019-01-26T09:43:40.225Z,45.67
2019-01-26T09:46:08.977Z,48.07
2019-01-26T09:48:37.683Z,43.90
2019-01-26T09:51:07.410Z,45.87
2019-01-26T09:53:36.151Z,47.27
2019-01-26T09:56:04.742Z,47.13
2019-01-26T09:58:33.544Z,54.33
2019-01-26T10:01:02.234Z,43.63
2019-01-26T10:03:31.095Z,44.57
2019-01-26T10:05:59.642Z,40.93
2019-01-26T10:08:28.420Z,45.17
2019-01-26T10:10:57.055Z,42.37
2019-01-26T10:13:25.652Z,43.28
2019-01-26T10:15:54.162Z,44.57
2019-01-26T10:18:22.792Z,49.33
2019-01-26T10:20:51.330Z,46.63
2019-01-26T10:23:20.077Z,41.27
2019-01-26T10:25:49.000Z,44.97
2019-01-26T10:28:17.656Z,42.70
2019-01-26T10:30:49.585Z,41.80
2019-01-26T10:33:18.405Z,39.20
2019-01-26T10:36:06.296Z,39.78
2019-01-26T10:38:37.274Z,43.10
2019-01-26T10:41:31.226Z,39.43
2019-01-26T10:43:59.943Z,42.97
2019-01-26T10:46:28.501Z,42.20
2019-01-26T10:49:00.768Z,44.60
2019-01-26T10:51:27.396Z,44.57
2019-01-26T10:53:56.030Z,44.13
2019-01-26T10:56:24.510Z,45.12
2019-01-26T10:58:53.065Z,38.63
2019-01-26T11:01:21.779Z,44.60
2019-01-26T11:03:50.428Z,46.50
2019-01-26T11:06:18.997Z,42.73
2019-01-26T11:08:47.628Z,47.87
2019-01-26T11:11:16.173Z,49.93
2019-01-26T11:13:44.751Z,46.10
2019-01-26T11:16:13.350Z,44.97
2019-01-26T11:18:41.975Z,48.33
2019-01-26T11:21:10.545Z,51.43
2019-01-26T11:23:38.827Z,46.13
2019-01-26T11:26:07.406Z,45.93
2019-01-26T11:28:35.980Z,47.23
2019-01-26T11:31:05.102Z,45.20
2019-01-26T11:33:33.819Z,46.00
2019-01-26T11:36:02.423Z,50.73
2019-01-26T11:38:31.139Z,47.70
2019-01-26T11:40:59.638Z,45.93
2019-01-26T11:43:28.302Z,41.07
2019-01-26T11:46:16.148Z,49.00
2019-01-26T11:48:47.220Z,43.80
2019-01-26T11:51:26.453Z,44.60
2019-01-26T11:53:55.119Z,43.10
2019-01-26T11:56:45.035Z,45.90
2019-01-26T11:59:13.854Z,46.35
2019-01-26T12:02:07.470Z,45.97
2019-01-26T12:04:52.354Z,48.83
2019-01-26T12:07:23.899Z,45.60
2019-01-26T12:09:52.448Z,47.87
2019-01-26T12:12:20.954Z,50.45
2019-01-26T12:14:49.674Z,46.77
2019-01-26T12:17:18.351Z,49.03
2019-01-26T12:19:47.168Z,43.20
2019-01-26T12:22:15.913Z,46.07
2019-01-26T12:24:45.497Z,47.30
2019-01-26T12:30:11.451Z,45.47
2019-01-26T12:32:40.084Z,42.80
2019-01-26T12:35:10.758Z,44.63
2019-01-26T12:37:39.419Z,43.57
2019-01-26T12:40:08.748Z,44.17
2019-01-26T12:42:37.349Z,42.55
2019-01-26T12:45:09.293Z,44.93
2019-01-26T12:47:37.888Z,41.97
2019-01-26T12:50:07.586Z,36.17
2019-01-26T12:52:36.291Z,42.30
2019-01-26T12:55:05.651Z,44.43
2019-01-26T12:57:34.339Z,43.17
2019-01-26T13:00:03.126Z,47.87
2019-01-26T13:02:31.879Z,45.73
2019-01-26T13:05:00.338Z,33.60
2019-01-26T13:07:29.133Z,50.97
2019-01-26T13:09:57.825Z,45.93
2019-01-26T13:12:26.373Z,43.50
2019-01-26T13:14:55.145Z,44.07
2019-01-26T13:17:23.758Z,42.13
2019-01-26T13:19:52.495Z,44.07
2019-01-26T13:22:21.025Z,40.03
2019-01-26T13:24:49.569Z,40.93
2019-01-26T13:27:18.056Z,82.10
2019-01-26T13:29:46.752Z,47.20
2019-01-26T13:32:15.347Z,42.57
2019-01-26T13:34:43.999Z,44.37
2019-01-26T13:37:12.575Z,41.30
2019-01-26T13:39:41.190Z,42.57
2019-01-26T13:42:09.802Z,43.37
2019-01-26T13:44:38.416Z,43.00
2019-01-26T13:47:07.240Z,47.07
2019-01-26T13:49:35.854Z,48.47
2019-01-26T13:52:04.935Z,45.97
2019-01-26T13:54:33.631Z,48.93
2019-01-26T13:57:02.342Z,49.77
2019-01-26T13:59:31.061Z,49.47
2019-01-26T14:01:59.576Z,47.17
2019-01-26T14:04:28.229Z,48.60
2019-01-26T14:06:56.603Z,50.33
2019-01-26T14:09:25.203Z,51.73
2019-01-26T14:11:53.954Z,48.10
2019-01-26T14:14:22.469Z,53.23
2019-01-26T14:16:51.497Z,48.93
2019-01-26T14:19:19.959Z,52.57
2019-01-26T14:21:48.406Z,50.10
2019-01-26T14:24:16.970Z,47.17
2019-01-26T14:26:49.703Z,46.47
2019-01-26T14:29:16.165Z,51.57
2019-01-26T14:31:44.845Z,52.60
2019-01-26T14:34:13.934Z,50.17
2019-01-26T14:36:43.634Z,50.13
2019-01-26T14:39:12.298Z,52.97
2019-01-26T14:41:40.838Z,51.63
2019-01-26T14:44:09.632Z,55.03
2019-01-26T14:46:38.414Z,53.20
2019-01-26T14:49:07.479Z,53.50
2019-01-26T14:51:36.113Z,52.80
2019-01-26T14:54:05.298Z,52.93
2019-01-26T14:56:33.961Z,51.73
2019-01-26T14:59:02.475Z,49.70
2019-01-26T15:01:30.945Z,48.43
2019-01-26T15:03:59.423Z,53.40
2019-01-26T15:06:28.211Z,47.73
2019-01-26T15:08:56.609Z,49.30
2019-01-26T15:11:25.269Z,51.03
2019-01-26T15:13:53.832Z,48.63
2019-01-26T15:16:22.630Z,51.00
2019-01-26T15:18:51.155Z,50.50
2019-01-26T15:21:19.729Z,51.33
2019-01-26T15:23:48.491Z,48.77
2019-01-26T15:26:16.948Z,52.87
2019-01-26T15:28:46.609Z,77.80
2019-01-26T15:31:15.146Z,53.20
2019-01-26T15:33:43.740Z,198.87
2019-01-26T15:36:12.486Z,65.87
2019-01-26T15:38:40.951Z,64.83
2019-01-26T15:41:09.877Z,53.10
2019-01-26T15:43:38.512Z,102.13
2019-01-26T15:46:08.431Z,55.33
2019-01-26T15:48:37.081Z,54.93
2019-01-26T15:51:05.747Z,55.50
2019-01-26T15:53:34.317Z,55.77
2019-01-26T15:56:04.472Z,58.13
2019-01-26T15:58:33.146Z,59.10
2019-01-26T16:01:06.355Z,60.87
2019-01-26T16:03:34.679Z,60.20
2019-01-26T16:06:04.726Z,58.60
2019-01-26T16:08:33.184Z,60.90
2019-01-26T16:11:01.906Z,62.37
2019-01-26T16:13:30.541Z,61.57
2019-01-26T16:15:59.128Z,64.00
2019-01-26T16:18:27.939Z,86.33
2019-01-26T16:20:56.591Z,96.40
2019-01-26T16:23:24.962Z,91.40
2019-01-26T16:25:53.615Z,93.50
2019-01-26T16:28:22.286Z,94.67
2019-01-26T16:30:50.993Z,70.00
2019-01-26T16:33:27.439Z,75.07
2019-01-26T16:35:55.874Z,70.83
2019-01-26T16:38:24.784Z,70.70
2019-01-26T16:40:53.582Z,71.87
2019-01-26T16:43:22.139Z,68.80
2019-01-26T16:45:50.730Z,72.17
2019-01-26T16:48:19.513Z,74.90
2019-01-26T16:50:48.167Z,81.83
2019-01-26T16:53:17.827Z,100.07
2019-01-26T16:55:46.754Z,98.87
2019-01-26T16:58:15.438Z,126.10
2019-01-26T17:00:50.131Z,132.57
2019-01-26T17:03:18.878Z,133.87
2019-01-26T17:05:47.691Z,227.13
2019-01-26T17:08:16.497Z,227.97
2019-01-26T17:10:45.164Z,149.00
2019-01-26T17:13:13.603Z,118.23
2019-01-26T17:15:44.504Z,108.50
2019-01-26T17:18:14.069Z,99.27
2019-01-26T17:20:43.756Z,125.07
2019-01-26T17:23:12.553Z,134.90
2019-01-26T17:25:41.171Z,131.90
2019-01-26T17:28:09.488Z,123.13
2019-01-26T17:30:39.966Z,117.17
2019-01-26T17:33:08.802Z,119.10
2019-01-26T17:35:37.646Z,112.77
2019-01-26T17:38:06.441Z,131.07
2019-01-26T17:40:35.315Z,174.72
2019-01-26T17:43:05.081Z,176.57
2019-01-26T17:45:33.667Z,172.13
2019-01-26T17:48:02.360Z,125.83
2019-01-26T17:50:31.041Z,115.77
2019-01-26T17:52:59.624Z,160.50
2019-01-26T17:55:28.230Z,144.63
2019-01-26T17:57:56.853Z,158.03
2019-01-26T18:00:35.309Z,124.13
2019-01-26T18:03:03.903Z,121.53
2019-01-26T18:05:32.639Z,107.73
2019-01-26T18:08:01.156Z,115.90
2019-01-26T18:10:29.595Z,132.00
2019-01-26T18:12:58.082Z,123.93
2019-01-26T18:15:27.932Z,116.77
2019-01-26T18:17:56.749Z,115.07
2019-01-26T18:20:26.383Z,105.80
2019-01-26T18:22:55.073Z,96.37
2019-01-26T18:25:28.344Z,92.10
2019-01-26T18:27:57.068Z,95.73
2019-01-26T18:30:27.606Z,94.57
2019-01-26T18:32:56.299Z,105.03
2019-01-26T18:35:25.031Z,107.70
2019-01-26T18:37:53.796Z,102.00
2019-01-26T18:40:23.278Z,100.97
2019-01-26T18:42:51.845Z,97.63
2019-01-26T18:45:20.825Z,107.57
2019-01-26T18:47:49.699Z,101.70
2019-01-26T18:50:20.782Z,100.33
2019-01-26T18:52:49.527Z,94.90
2019-01-26T18:55:18.118Z,96.87
2019-01-26T18:57:47.229Z,107.80
2019-01-26T19:00:18.427Z,116.63
2019-01-26T19:02:48.987Z,119.60
2019-01-26T19:05:18.878Z,124.20
2019-01-26T19:07:47.473Z,134.03
2019-01-26T19:10:16.177Z,123.57
2019-01-26T19:12:44.805Z,116.83
2019-01-26T19:15:14.743Z,128.33
2019-01-26T19:17:43.289Z,127.20
2019-01-26T19:20:12.617Z,127.30
2019-01-26T19:22:42.089Z,124.67
2019-01-26T19:25:12.548Z,121.30
2019-01-26T19:27:42.315Z,127.70
2019-01-26T19:30:11.770Z,124.97
2019-01-26T19:32:40.591Z,120.53
2019-01-26T19:35:10.657Z,115.67
2019-01-26T19:37:39.768Z,121.20
2019-01-26T19:40:15.533Z,114.50
2019-01-26T19:42:45.882Z,115.63
2019-01-26T19:45:18.514Z,120.30
2019-01-26T19:47:47.153Z,134.87
2019-01-26T19:50:18.422Z,126.47
2019-01-26T19:52:47.231Z,124.10
2019-01-26T19:55:17.292Z,116.40
2019-01-26T19:57:45.961Z,112.60
2019-01-26T20:00:14.933Z,109.57
2019-01-26T20:02:43.869Z,112.07
2019-01-26T20:05:14.782Z,150.17
2019-01-26T20:07:44.299Z,131.17
2019-01-26T20:10:13.892Z,126.17
2019-01-26T20:12:42.987Z,123.60
2019-01-26T20:15:13.373Z,120.70
2019-01-26T20:17:44.276Z,113.20
2019-01-26T20:20:16.449Z,107.77
2019-01-26T20:22:45.604Z,101.53
2019-01-26T20:25:14.724Z,95.63
2019-01-26T20:27:43.432Z,100.30
2019-01-26T20:30:16.291Z,111.27
2019-01-26T20:32:45.103Z,104.27
2019-01-26T20:35:13.997Z,101.00
2019-01-26T20:37:43.297Z,107.27
2019-01-26T20:40:15.144Z,107.80
2019-01-26T20:42:44.060Z,109.57
2019-01-26T20:45:18.259Z,115.13
2019-01-26T20:47:47.264Z,110.80
2019-01-26T20:50:17.546Z,159.77
2019-01-26T20:52:46.573Z,113.30
2019-01-26T20:55:15.671Z,102.73
2019-01-26T20:57:44.721Z,103.90
2019-01-26T21:00:17.022Z,101.50
2019-01-26T21:02:46.109Z,107.87
2019-01-26T21:05:14.773Z,108.80
2019-01-26T21:07:43.749Z,109.00
2019-01-26T21:10:15.939Z,100.57
2019-01-26T21:12:44.999Z,115.27
2019-01-26T21:15:14.058Z,110.10
2019-01-26T21:17:42.978Z,109.93
2019-01-26T21:20:13.174Z,120.57
2019-01-26T21:22:42.159Z,114.07
2019-01-26T21:25:12.425Z,106.50
2019-01-26T21:27:41.648Z,100.47
2019-01-26T21:30:16.122Z,104.00
2019-01-26T21:32:44.892Z,98.63
2019-01-26T21:35:13.605Z,101.30
2019-01-26T21:37:42.134Z,98.03
2019-01-26T21:40:11.943Z,107.03
2019-01-26T21:42:40.113Z,104.30
2019-01-26T21:45:09.557Z,101.00
2019-01-26T21:47:38.104Z,93.93
2019-01-26T21:50:10.181Z,104.40
2019-01-26T21:52:41.034Z,101.60
2019-01-26T21:55:09.231Z,100.83
2019-01-26T21:57:37.805Z,101.37
2019-01-26T22:00:10.729Z,97.53
2019-01-26T22:02:39.409Z,101.67
2019-01-26T22:05:08.901Z,98.57
2019-01-26T22:07:37.352Z,101.20
2019-01-26T22:10:07.406Z,100.43
2019-01-26T22:12:36.182Z,99.07
2019-01-26T22:15:06.015Z,102.67
2019-01-26T22:17:34.362Z,100.30
2019-01-26T22:20:03.576Z,98.57
2019-01-26T22:22:32.215Z,109.87
2019-01-26T22:25:00.519Z,128.40
2019-01-26T22:27:28.990Z,120.10
2019-01-26T22:29:57.499Z,118.30
2019-01-26T22:32:25.951Z,120.93
2019-01-26T22:34:54.463Z,113.23
2019-01-26T22:37:22.912Z,99.47
2019-01-26T22:39:51.812Z,96.43
2019-01-26T22:42:20.126Z,89.40
2019-01-26T22:44:48.773Z,94.90
2019-01-26T22:47:17.181Z,87.90
2019-01-26T22:49:45.506Z,80.27
2019-01-26T22:52:14.125Z,79.13
2019-01-26T22:54:42.747Z,84.07
2019-01-26T22:57:11.260Z,79.17
2019-01-26T22:59:39.847Z,74.60
2019-01-26T23:02:08.603Z,82.20
2019-01-26T23:05:15.950Z,75.73
2019-01-26T23:07:48.201Z,73.20
2019-01-26T23:11:09.410Z,89.10
2019-01-26T23:14:18.290Z,89.70
2019-01-26T23:17:16.123Z,88.77
2019-01-26T23:20:24.677Z,87.93
2019-01-26T23:23:43.243Z,79.70
2019-01-26T23:26:43.785Z,87.43
2019-01-26T23:29:47.668Z,81.40
2019-01-26T23:32:16.457Z,83.73
2019-01-26T23:34:44.962Z,86.50
2019-01-26T23:37:13.549Z,84.53
2019-01-26T23:39:41.909Z,94.57
2019-01-26T23:42:10.401Z,97.27
2019-01-26T23:44:38.822Z,112.07
2019-01-26T23:47:07.562Z,78.43
2019-01-26T23:49:36.160Z,67.10
2019-01-26T23:52:05.155Z,68.43
2019-01-26T23:54:33.658Z,72.40
2019-01-26T23:57:02.137Z,73.33
2019-01-26T23:59:31.864Z,75.27
